Time;durP1;ratioP1;P1;durP2;ratioP2;P2;SDS_P1;SDS_P2;PMS_P1;PMS_P2;Temp;Humidity;BMP_temperature;BMP_pressure;BME280_temperature;BME280_humidity;BME280_pressure;Samples;Min_cycle;Max_cycle;Signal;HPM_P1;HPM_P2
2021/12/29 00:01:52;;;;;;;8.60;6.55;;;;;;;7.88;92.92;99988.63;5100881;28;20020;-72
2021/12/29 00:04:18;;;;;;;9.30;6.68;;;;;;;7.87;93.76;99994.72;5057141;28;20032;-73
2021/12/29 00:06:44;;;;;;;8.45;7.57;;;;;;;7.88;93.59;100004.28;5089910;28;20038;-72
2021/12/29 00:09:10;;;;;;;11.90;8.63;;;;;;;7.86;93.56;100000.84;5050668;28;20032;-72
2021/12/29 00:11:38;;;;;;;14.55;9.13;;;;;;;7.85;93.03;100006.94;5068495;28;20040;-72
2021/12/29 00:14:08;;;;;;;10.45;8.80;;;;;;;7.84;93.57;100014.81;5086544;28;20028;-72
2021/12/29 00:16:35;;;;;;;12.32;9.85;;;;;;;7.83;93.49;100024.38;5085380;28;20043;-74
2021/12/29 00:19:05;;;;;;;16.33;9.65;;;;;;;7.83;93.68;100042.63;5071489;28;20544;-73
2021/12/29 00:21:33;;;;;;;16.48;9.50;;;;;;;7.82;93.49;100043.50;5087961;28;20028;-72
2021/12/29 00:24:03;;;;;;;13.73;10.02;;;;;;;7.81;93.53;100062.66;5073123;28;20040;-72
2021/12/29 00:26:31;;;;;;;10.30;9.25;;;;;;;7.80;93.82;100066.13;5064718;28;20033;-73
2021/12/29 00:28:59;;;;;;;17.15;9.80;;;;;;;7.80;93.31;100066.13;5069699;28;20043;-71
2021/12/29 00:31:28;;;;;;;12.82;9.80;;;;;;;7.79;93.35;100074.84;5085210;28;20111;-74
2021/12/29 00:33:54;;;;;;;15.90;10.37;;;;;;;7.77;93.76;100074.00;5069861;28;20036;-71
2021/12/29 00:36:19;;;;;;;14.88;10.43;;;;;;;7.77;93.29;100077.47;5067031;28;20039;-70
2021/12/29 00:38:45;;;;;;;18.48;10.95;;;;;;;7.76;93.48;100078.34;5056194;28;20028;-72
2021/12/29 00:41:11;;;;;;;17.90;9.90;;;;;;;7.78;93.57;100091.38;5087859;28;20033;-71
2021/12/29 00:43:37;;;;;;;13.68;10.20;;;;;;;7.77;92.90;100094.88;5087703;28;20123;-70
2021/12/29 00:46:03;;;;;;;15.48;9.15;;;;;;;7.77;92.85;100097.47;5082451;28;20796;-72
2021/12/29 00:48:35;;;;;;;12.45;8.50;;;;;;;7.76;93.00;100103.59;5072673;27;20044;-72
2021/12/29 00:51:02;;;;;;;11.35;7.72;;;;;;;7.76;92.57;100116.63;5087771;27;20041;-72
2021/12/29 00:53:27;;;;;;;8.27;7.45;;;;;;;7.77;92.89;100118.34;5094966;27;20051;-72
2021/12/29 00:55:55;;;;;;;14.57;7.78;;;;;;;7.75;93.26;100118.34;5088870;27;20027;-73
2021/12/29 00:58:21;;;;;;;8.20;7.13;;;;;;;7.76;92.98;100127.06;5110595;27;20656;-72
2021/12/29 01:00:47;;;;;;;9.00;7.40;;;;;;;7.74;92.96;100129.69;5092015;27;20571;-73
2021/12/29 01:03:12;;;;;;;8.38;7.45;;;;;;;7.76;93.76;100133.13;5109143;27;20027;-71
2021/12/29 01:05:40;;;;;;;10.10;8.10;;;;;;;7.75;93.75;100141.81;5105669;27;20479;-72
2021/12/29 01:08:07;;;;;;;9.38;8.05;;;;;;;7.74;93.16;100150.56;5091573;27;20444;-71
2021/12/29 01:10:33;;;;;;;10.35;8.13;;;;;;;7.76;93.39;100153.16;5102126;27;20025;-72
2021/12/29 01:13:01;;;;;;;9.60;8.07;;;;;;;7.76;93.20;100153.16;5106492;27;20034;-72
2021/12/29 01:15:33;;;;;;;11.32;8.63;;;;;;;7.75;93.62;100165.31;5096209;27;20497;-73
2021/12/29 01:18:06;;;;;;;10.10;9.05;;;;;;;7.75;93.40;100160.09;5108746;27;20080;-72
2021/12/29 01:20:33;;;;;;;12.52;9.15;;;;;;;7.74;93.66;100165.31;5108668;27;20020;-71
2021/12/29 01:22:59;;;;;;;10.90;8.13;;;;;;;7.75;93.38;100177.50;5108913;27;20118;-71
2021/12/29 01:25:26;;;;;;;11.95;8.48;;;;;;;7.77;93.26;100175.72;5094907;27;20070;-72
2021/12/29 01:27:52;;;;;;;9.77;8.25;;;;;;;7.76;92.69;100193.13;5075106;27;20056;-73
2021/12/29 01:30:19;;;;;;;9.23;7.78;;;;;;;7.75;92.82;100193.13;5076853;27;20027;-72
2021/12/29 01:32:44;;;;;;;9.77;8.80;;;;;;;7.74;92.66;100199.22;5107586;27;20467;-72
2021/12/29 01:35:11;;;;;;;9.52;8.63;;;;;;;7.74;93.27;100207.94;5105456;27;20015;-72
2021/12/29 01:37:38;;;;;;;8.85;7.97;;;;;;;7.76;93.07;100218.34;5092226;27;20035;-72
2021/12/29 01:40:07;;;;;;;12.30;8.75;;;;;;;7.75;93.29;100219.22;5093504;27;20149;-71
2021/12/29 01:42:32;;;;;;;11.90;8.85;;;;;;;7.74;92.84;100227.91;5108458;27;20023;-73
2021/12/29 01:44:58;;;;;;;13.27;7.95;;;;;;;7.73;92.96;100231.41;5090020;27;20030;-72
2021/12/29 01:47:30;;;;;;;10.93;7.78;;;;;;;7.74;92.78;100238.34;5082484;27;20039;-72
2021/12/29 01:49:59;;;;;;;9.35;8.45;;;;;;;7.72;92.68;100238.38;5107702;27;20123;-71
2021/12/29 01:52:29;;;;;;;11.43;8.25;;;;;;;7.71;92.97;100239.22;5094522;27;20134;-71
2021/12/29 01:54:54;;;;;;;9.55;7.38;;;;;;;7.72;93.10;100250.56;5077113;27;20029;-71
2021/12/29 01:57:22;;;;;;;8.45;7.65;;;;;;;7.71;92.81;100243.59;5088769;27;20031;-72
2021/12/29 01:59:48;;;;;;;10.82;7.72;;;;;;;7.70;92.59;100247.06;5123183;27;20019;-72
2021/12/29 02:02:14;;;;;;;10.80;8.48;;;;;;;7.70;92.37;100250.56;5095406;27;20096;-71
2021/12/29 02:04:45;;;;;;;12.60;8.10;;;;;;;7.69;92.71;100247.97;5103690;27;20015;-71
2021/12/29 02:07:11;;;;;;;8.95;7.15;;;;;;;7.69;92.62;100245.38;5105729;28;20036;-72
2021/12/29 02:09:37;;;;;;;9.65;7.68;;;;;;;7.69;92.54;100247.97;5078462;27;20050;-72
2021/12/29 02:12:03;;;;;;;9.35;6.97;;;;;;;7.69;92.86;100266.22;5088988;27;20049;-72
2021/12/29 02:14:29;;;;;;;8.80;7.20;;;;;;;7.69;92.42;100266.22;5104984;28;20019;-71
2021/12/29 02:16:55;;;;;;;10.15;7.82;;;;;;;7.70;92.37;100278.38;5080293;27;20440;-76
2021/12/29 02:19:22;;;;;;;15.00;9.15;;;;;;;7.70;93.14;100273.16;5108554;27;20432;-76
2021/12/29 02:21:57;;;;;;;12.30;7.85;;;;;;;7.69;92.73;100284.50;5094030;27;20031;-76
2021/12/29 02:24:36;;;;;;;12.10;8.93;;;;;;;7.70;92.65;100279.25;5099991;27;20030;-77
2021/12/29 02:27:03;;;;;;;9.98;8.82;;;;;;;7.70;92.31;100275.75;5108041;27;20130;-75
2021/12/29 02:29:29;;;;;;;9.15;8.15;;;;;;;7.70;92.39;100286.19;5125741;27;20031;-75
2021/12/29 02:31:55;;;;;;;8.88;8.02;;;;;;;7.71;92.78;100280.13;5091199;27;20038;-76
2021/12/29 02:34:20;;;;;;;11.43;7.43;;;;;;;7.70;92.63;100288.81;5096269;27;20454;-77
2021/12/29 02:36:46;;;;;;;10.82;8.65;;;;;;;7.69;93.24;100282.72;5077773;27;20175;-76
2021/12/29 02:39:17;;;;;;;9.48;8.48;;;;;;;7.69;92.53;100292.31;5074264;27;20047;-75
2021/12/29 02:41:46;;;;;;;11.40;9.55;;;;;;;7.69;92.38;100293.16;5103359;28;20031;-76
2021/12/29 02:44:18;;;;;;;11.15;9.98;;;;;;;7.68;92.78;100290.56;5107551;27;20092;-77
2021/12/29 02:46:44;;;;;;;12.35;9.88;;;;;;;7.68;92.74;100301.00;5089702;28;20055;-76
2021/12/29 02:49:10;;;;;;;13.50;10.48;;;;;;;7.69;92.91;100307.97;5094763;28;20048;-76
2021/12/29 02:51:35;;;;;;;18.23;11.00;;;;;;;7.67;93.28;100304.47;5069254;28;20040;-75
2021/12/29 02:54:05;;;;;;;17.45;10.85;;;;;;;7.67;93.33;100304.47;5070668;28;20029;-74
2021/12/29 02:56:31;;;;;;;17.03;10.53;;;;;;;7.65;92.69;100290.59;5083781;28;20089;-76
2021/12/29 02:58:57;;;;;;;15.60;11.55;;;;;;;7.63;93.07;100301.91;5079904;28;20286;-76
2021/12/29 03:01:24;;;;;;;12.40;10.88;;;;;;;7.60;92.99;100294.13;5081198;28;20505;-76
2021/12/29 03:03:49;;;;;;;11.10;9.73;;;;;;;7.61;93.91;100292.34;5068550;28;20395;-72
2021/12/29 03:06:15;;;;;;;19.73;8.38;;;;;;;7.59;93.20;100294.97;5087829;28;20494;-76
2021/12/29 03:08:41;;;;;;;11.52;9.27;;;;;;;7.59;93.13;100307.16;5080140;28;20040;-75
2021/12/29 03:11:10;;;;;;;13.75;9.98;;;;;;;7.59;93.47;100325.41;5086905;28;20024;-76
2021/12/29 03:13:38;;;;;;;15.13;10.77;;;;;;;7.59;93.83;100333.25;5056219;28;20037;-75
2021/12/29 03:16:07;;;;;;;12.57;11.27;;;;;;;7.58;93.94;100331.50;5081820;28;20055;-75
2021/12/29 03:18:33;;;;;;;13.48;11.95;;;;;;;7.57;93.97;100328.03;5087104;28;20019;-75
2021/12/29 03:20:59;;;;;;;15.20;11.50;;;;;;;7.56;93.69;100328.91;5055634;28;20042;-76
2021/12/29 03:23:25;;;;;;;23.42;12.15;;;;;;;7.57;93.56;100345.41;5087352;28;20028;-75
2021/12/29 03:25:51;;;;;;;17.98;13.38;;;;;;;7.56;93.99;100344.56;5083032;28;20020;-74
2021/12/29 03:28:19;;;;;;;22.50;13.20;;;;;;;7.55;93.89;100353.25;5082215;28;20030;-76
2021/12/29 03:30:48;;;;;;;17.48;12.07;;;;;;;7.55;94.16;100353.25;5082963;28;20380;-75
2021/12/29 03:33:14;;;;;;;13.43;11.40;;;;;;;7.54;94.09;100364.56;5086237;28;20024;-75
2021/12/29 03:35:44;;;;;;;20.38;12.10;;;;;;;7.54;94.04;100363.69;5088346;28;20046;-74
2021/12/29 03:38:13;;;;;;;19.73;12.80;;;;;;;7.52;94.54;100368.91;5082532;28;20425;-74
2021/12/29 03:40:39;;;;;;;14.82;12.25;;;;;;;7.54;94.38;100377.59;5087368;28;20043;-75
2021/12/29 03:43:07;;;;;;;16.35;12.70;;;;;;;7.52;94.55;100384.56;5058350;28;20111;-74
2021/12/29 03:45:37;;;;;;;17.33;12.57;;;;;;;7.52;94.23;100379.34;5088929;28;20080;-74
2021/12/29 03:48:04;;;;;;;18.02;13.07;;;;;;;7.51;94.74;100375.00;5070045;28;20028;-75
2021/12/29 03:50:32;;;;;;;19.27;12.95;;;;;;;7.50;94.68;100381.09;5093837;28;20044;-74
2021/12/29 03:52:58;;;;;;;18.02;14.60;;;;;;;7.50;95.00;100390.66;5088618;28;20028;-74
2021/12/29 03:55:23;;;;;;;19.95;13.63;;;;;;;7.49;94.63;100402.84;5103595;27;20392;-74
2021/12/29 03:57:49;;;;;;;21.02;13.38;;;;;;;7.49;94.47;100404.59;5090928;28;20376;-74
2021/12/29 04:00:16;;;;;;;19.73;14.65;;;;;;;7.49;94.69;100401.97;5074729;28;20032;-74
2021/12/29 04:02:42;;;;;;;18.75;14.15;;;;;;;7.49;94.82;100409.78;5104077;28;20055;-74
2021/12/29 04:05:15;;;;;;;18.48;13.80;;;;;;;7.46;94.66;100406.31;5106412;28;20028;-74
2021/12/29 04:07:41;;;;;;;20.63;13.52;;;;;;;7.46;94.21;100411.53;5101573;28;20020;-75
2021/12/29 04:10:11;;;;;;;18.90;13.68;;;;;;;7.46;94.53;100410.69;5106100;28;20038;-74
2021/12/29 04:12:41;;;;;;;16.23;13.10;;;;;;;7.46;94.35;100416.75;5107760;28;20379;-74
2021/12/29 04:15:08;;;;;;;20.47;13.50;;;;;;;7.46;94.51;100421.09;5074578;28;20081;-75
2021/12/29 04:17:38;;;;;;;18.60;13.63;;;;;;;7.45;94.69;100420.22;5086975;28;20036;-74
2021/12/29 04:22:58;;;;;;;20.02;13.90;;;;;;;7.43;94.83;100432.41;5108605;28;20101;-75
2021/12/29 04:25:25;;;;;;;20.10;14.57;;;;;;;7.43;94.37;100418.53;5087603;28;20467;-75
2021/12/29 04:27:54;;;;;;;20.35;14.23;;;;;;;7.42;94.63;100419.38;5086478;28;20118;-74
2021/12/29 04:30:22;;;;;;;15.63;12.93;;;;;;;7.42;94.68;100427.22;5104542;28;20038;-74
2021/12/29 04:32:48;;;;;;;23.73;14.57;;;;;;;7.40;95.04;100427.22;5106575;28;20019;-75
2021/12/29 04:35:14;;;;;;;19.70;13.23;;;;;;;7.40;94.44;100437.66;5107125;28;20026;-75
2021/12/29 04:37:39;;;;;;;16.98;13.25;;;;;;;7.40;94.69;100436.78;5101710;28;20043;-75
2021/12/29 04:40:08;;;;;;;19.65;13.70;;;;;;;7.40;94.68;100444.59;5101041;28;20031;-75
2021/12/29 04:42:34;;;;;;;21.80;14.18;;;;;;;7.40;94.42;100444.59;5072928;28;20046;-76
2021/12/29 04:45:04;;;;;;;29.95;15.45;;;;;;;7.38;94.33;100455.00;5107530;28;20119;-75
2021/12/29 04:47:38;;;;;;;16.90;13.70;;;;;;;7.39;94.53;100455.91;5103878;28;20027;-75
2021/12/29 04:50:04;;;;;;;22.25;14.75;;;;;;;7.38;94.75;100467.19;5088271;28;20309;-75
2021/12/29 04:52:30;;;;;;;21.98;14.82;;;;;;;7.39;94.50;100471.53;5089416;28;20027;-75
2021/12/29 04:54:57;;;;;;;25.35;14.77;;;;;;;7.38;94.53;100472.41;5105970;28;20032;-75
2021/12/29 04:57:26;;;;;;;24.33;15.02;;;;;;;7.36;94.36;100475.03;5087674;28;20027;-76
2021/12/29 04:59:52;;;;;;;28.27;13.90;;;;;;;7.37;94.47;100484.59;5075350;28;20100;-76
2021/12/29 05:02:18;;;;;;;25.10;14.52;;;;;;;7.36;95.15;100484.59;5071277;28;20027;-76
2021/12/29 05:04:55;;;;;;;18.05;14.07;;;;;;;7.36;95.07;100476.78;5103962;28;20540;-75
2021/12/29 05:10:05;;;;;;;25.42;13.77;;;;;;;7.35;94.63;100486.31;5108285;28;20042;-76
2021/12/29 05:12:31;;;;;;;20.17;13.13;;;;;;;7.35;95.09;100490.66;5099177;28;20028;-74
2021/12/29 05:14:56;;;;;;;23.30;14.32;;;;;;;7.34;94.62;100489.81;5071169;28;20063;-76
2021/12/29 05:17:22;;;;;;;29.88;14.50;;;;;;;7.35;95.04;100486.31;5069226;28;20476;-76
2021/12/29 05:19:50;;;;;;;18.58;14.18;;;;;;;7.34;94.89;100488.94;5082999;28;20034;-76
2021/12/29 05:22:15;;;;;;;22.35;14.73;;;;;;;7.32;94.88;100483.72;5088656;28;20119;-74
2021/12/29 05:24:41;;;;;;;19.80;14.88;;;;;;;7.34;94.39;100489.81;5104860;28;20557;-76
2021/12/29 05:27:06;;;;;;;20.88;14.93;;;;;;;7.34;94.44;100486.31;5086598;28;20115;-76
2021/12/29 05:29:32;;;;;;;20.13;14.40;;;;;;;7.32;94.13;100486.34;5087847;28;20040;-76
2021/12/29 05:32:00;;;;;;;23.13;14.07;;;;;;;7.32;94.83;100485.47;5086452;28;20122;-75
2021/12/29 05:34:28;;;;;;;19.42;13.77;;;;;;;7.32;94.57;100480.25;5101771;28;20030;-75
2021/12/29 05:36:53;;;;;;;24.20;14.30;;;;;;;7.32;94.71;100480.25;5068934;28;20024;-75
2021/12/29 05:39:19;;;;;;;23.02;14.00;;;;;;;7.31;94.43;100494.16;5092096;28;20057;-76
2021/12/29 05:41:45;;;;;;;16.38;12.73;;;;;;;7.31;94.25;100497.63;5076861;28;20020;-74
2021/12/29 05:44:10;;;;;;;16.80;13.77;;;;;;;7.32;94.31;100501.13;5102795;28;20089;-76
2021/12/29 05:46:36;;;;;;;20.20;14.88;;;;;;;7.31;94.36;100500.22;5075066;28;20028;-76
2021/12/29 05:49:02;;;;;;;19.88;13.75;;;;;;;7.31;94.02;100501.97;5086293;28;20055;-75
2021/12/29 05:51:27;;;;;;;20.88;13.52;;;;;;;7.31;93.45;100499.38;5107529;28;20027;-76
2021/12/29 05:53:53;;;;;;;23.20;13.57;;;;;;;7.31;94.18;100515.88;5071809;28;20066;-74
2021/12/29 05:56:18;;;;;;;20.60;13.60;;;;;;;7.29;94.05;100509.81;5102182;28;20038;-75
2021/12/29 05:58:44;;;;;;;21.05;14.13;;;;;;;7.28;93.90;100503.75;5091592;28;20106;-74
2021/12/29 06:01:09;;;;;;;16.20;13.43;;;;;;;7.32;94.18;100508.94;5083900;28;20038;-75
2021/12/29 06:03:36;;;;;;;26.08;13.02;;;;;;;7.29;94.76;100499.38;5081025;28;20028;-75
2021/12/29 06:06:02;;;;;;;18.00;13.75;;;;;;;7.28;93.90;100501.13;5105369;28;20028;-76
2021/12/29 06:08:28;;;;;;;22.50;14.48;;;;;;;7.28;94.01;100501.13;5087795;28;20074;-75
2021/12/29 06:10:53;;;;;;;20.40;14.77;;;;;;;7.28;93.77;100508.94;5085422;28;20027;-74
2021/12/29 06:13:19;;;;;;;17.63;13.70;;;;;;;7.28;93.95;100510.66;5086929;28;20381;-75
2021/12/29 06:15:44;;;;;;;22.50;14.80;;;;;;;7.28;94.15;100519.38;5089564;28;20039;-74
2021/12/29 06:18:10;;;;;;;22.98;14.25;;;;;;;7.29;94.30;100522.84;5086092;28;20421;-75
2021/12/29 06:20:38;;;;;;;23.83;14.98;;;;;;;7.27;94.39;100522.84;5073877;28;20395;-74
2021/12/29 06:23:06;;;;;;;16.15;12.63;;;;;;;7.29;94.47;100536.72;5089078;28;20031;-74
2021/12/29 06:25:33;;;;;;;19.05;13.80;;;;;;;7.28;93.53;100536.72;5103184;28;20428;-75
2021/12/29 06:27:58;;;;;;;16.88;13.82;;;;;;;7.27;94.50;100545.44;5090316;28;20521;-75
2021/12/29 06:30:24;;;;;;;20.35;13.65;;;;;;;7.26;93.55;100554.97;5073731;28;20031;-75
2021/12/29 06:32:50;;;;;;;20.42;13.50;;;;;;;7.24;93.73;100559.34;5089832;28;20035;-73
2021/12/29 06:35:15;;;;;;;21.67;14.02;;;;;;;7.25;93.82;100563.66;5103008;28;20468;-74
2021/12/29 06:37:42;;;;;;;21.23;14.13;;;;;;;7.24;93.93;100555.84;5075698;28;20040;-75
2021/12/29 06:40:09;;;;;;;17.42;13.80;;;;;;;7.23;94.33;100557.59;5089008;28;20027;-76
2021/12/29 06:42:35;;;;;;;23.05;14.05;;;;;;;7.22;93.79;100558.47;5090659;28;20058;-75
2021/12/29 06:45:00;;;;;;;25.50;14.73;;;;;;;7.21;93.50;100554.16;5084314;28;20070;-75
2021/12/29 06:47:28;;;;;;;17.80;12.80;;;;;;;7.21;94.13;100559.38;5101658;28;20036;-76
2021/12/29 06:49:53;;;;;;;24.02;14.88;;;;;;;7.21;93.73;100561.09;5090138;28;20032;-76
2021/12/29 06:52:19;;;;;;;19.20;13.98;;;;;;;7.21;93.84;100561.09;5076981;28;20471;-76
2021/12/29 06:54:46;;;;;;;22.33;16.20;;;;;;;7.22;93.26;100568.03;5102147;28;20318;-75
2021/12/29 06:57:12;;;;;;;18.48;14.73;;;;;;;7.21;94.40;100561.97;5085005;28;20483;-77
2021/12/29 06:59:38;;;;;;;24.98;14.43;;;;;;;7.19;93.51;100566.28;5096737;28;20032;-76
2021/12/29 07:02:04;;;;;;;17.02;12.73;;;;;;;7.19;93.53;100571.50;5081347;28;20364;-76
2021/12/29 07:04:29;;;;;;;24.67;14.38;;;;;;;7.19;94.06;100579.31;5089570;28;20032;-76
2021/12/29 07:06:58;;;;;;;17.48;13.30;;;;;;;7.17;93.91;100578.47;5086956;28;20479;-76
2021/12/29 07:09:24;;;;;;;21.63;12.02;;;;;;;7.17;93.13;100577.59;5081287;28;20066;-77
2021/12/29 07:11:50;;;;;;;21.10;12.90;;;;;;;7.15;93.38;100577.59;5099661;28;20062;-76
2021/12/29 07:14:16;;;;;;;18.17;12.40;;;;;;;7.13;93.74;100584.56;5102665;28;20039;-78
2021/12/29 07:16:44;;;;;;;14.23;10.93;;;;;;;7.13;94.09;100592.38;5091255;28;20036;-77
2021/12/29 07:19:11;;;;;;;23.63;12.27;;;;;;;7.12;93.87;100595.84;5100832;28;20085;-77
2021/12/29 07:21:36;;;;;;;21.42;11.80;;;;;;;7.11;94.31;100597.59;5101014;28;20027;-77
2021/12/29 07:24:02;;;;;;;20.42;10.65;;;;;;;7.10;93.77;100602.81;5105029;28;21768;-77
2021/12/29 07:26:27;;;;;;;20.45;11.50;;;;;;;7.08;93.80;100610.63;5082626;28;20055;-75
2021/12/29 07:28:53;;;;;;;22.05;11.25;;;;;;;7.09;93.50;100619.31;5103771;28;20046;-77
2021/12/29 07:31:20;;;;;;;15.02;10.27;;;;;;;7.08;93.76;100607.13;5083744;28;20064;-77
2021/12/29 07:33:46;;;;;;;21.08;10.82;;;;;;;7.07;93.39;100610.63;5070117;28;20127;-76
2021/12/29 07:36:12;;;;;;;15.15;9.57;;;;;;;7.08;93.31;100612.34;5105410;28;20042;-77
2021/12/29 07:38:39;;;;;;;16.92;8.85;;;;;;;7.06;93.28;100634.94;5098394;28;20107;-76
2021/12/29 07:41:05;;;;;;;22.40;11.48;;;;;;;7.05;93.67;100631.47;5087735;28;20046;-76
2021/12/29 07:43:31;;;;;;;14.35;10.27;;;;;;;7.04;93.75;100634.94;5101291;28;20024;-77
2021/12/29 07:45:56;;;;;;;15.60;10.43;;;;;;;7.05;93.56;100638.41;5091603;28;22468;-76
2021/12/29 07:48:28;;;;;;;16.70;9.50;;;;;;;7.04;93.50;100636.66;5059372;28;20376;-77
2021/12/29 07:50:54;;;;;;;17.50;10.30;;;;;;;7.04;94.30;100647.09;5088097;28;20146;-76
2021/12/29 07:53:20;;;;;;;20.33;10.73;;;;;;;7.04;93.48;100649.69;5104294;28;20055;-77
2021/12/29 07:55:46;;;;;;;18.52;10.20;;;;;;;7.02;93.96;100634.06;5101253;28;20576;-77
2021/12/29 07:58:11;;;;;;;18.50;11.48;;;;;;;7.03;93.46;100634.97;5101881;27;20130;-76
2021/12/29 08:00:36;;;;;;;18.90;10.88;;;;;;;7.04;93.88;100642.78;5085910;28;20031;-77
2021/12/29 08:03:04;;;;;;;15.45;10.55;;;;;;;7.04;93.71;100636.66;5078186;27;20088;-77
2021/12/29 08:05:29;;;;;;;20.48;9.80;;;;;;;7.04;93.24;100636.66;5095256;28;20034;-77
2021/12/29 08:07:55;;;;;;;14.50;10.15;;;;;;;7.03;93.37;100634.97;5067665;28;20134;-77
2021/12/29 08:10:20;;;;;;;15.88;9.95;;;;;;;7.03;93.67;100641.03;5097124;27;20479;-78
2021/12/29 08:12:48;;;;;;;13.10;9.73;;;;;;;7.04;93.26;100636.66;5082332;27;20031;-77
2021/12/29 08:15:14;;;;;;;15.13;9.98;;;;;;;7.06;93.08;100640.16;5092518;27;20035;-76
2021/12/29 08:17:40;;;;;;;14.20;9.13;;;;;;;7.06;93.31;100645.38;5095167;28;20540;-77
2021/12/29 08:20:07;;;;;;;14.00;9.18;;;;;;;7.06;94.04;100645.38;5104165;28;20024;-77
2021/12/29 08:22:32;;;;;;;11.60;8.40;;;;;;;7.06;93.85;100645.38;5103789;28;20097;-78
2021/12/29 08:24:58;;;;;;;14.20;10.05;;;;;;;7.09;93.02;100650.56;5098963;27;20057;-76
2021/12/29 08:27:24;;;;;;;10.93;8.68;;;;;;;7.08;93.41;100636.69;5082027;28;20506;-77
2021/12/29 08:29:50;;;;;;;12.13;8.48;;;;;;;7.10;93.46;100631.47;5100366;27;20039;-77
2021/12/29 08:32:17;;;;;;;14.20;9.43;;;;;;;7.11;93.57;100651.44;5116031;27;20023;-77
2021/12/29 08:34:43;;;;;;;15.73;9.93;;;;;;;7.12;93.45;100640.16;5115762;27;20026;-77
2021/12/29 08:37:09;;;;;;;22.02;8.75;;;;;;;7.13;93.79;100641.88;5092025;28;20050;-76
2021/12/29 08:39:35;;;;;;;14.70;8.52;;;;;;;7.15;93.43;100642.75;5101084;28;20027;-76
2021/12/29 08:42:00;;;;;;;15.82;9.50;;;;;;;7.16;93.41;100647.09;5078843;28;20043;-77
2021/12/29 08:44:26;;;;;;;22.05;9.13;;;;;;;7.17;93.10;100655.78;5095497;28;20034;-77
2021/12/29 08:46:51;;;;;;;16.80;10.63;;;;;;;7.18;93.33;100644.47;5073302;28;20032;-77
2021/12/29 08:49:17;;;;;;;18.95;10.15;;;;;;;7.17;93.93;100648.84;5064054;28;20126;-76
2021/12/29 08:51:42;;;;;;;22.42;10.07;;;;;;;7.20;92.77;100658.41;5096000;28;20042;-76
2021/12/29 08:54:08;;;;;;;25.85;11.18;;;;;;;7.21;92.91;100661.00;5078722;28;20122;-77
2021/12/29 08:56:35;;;;;;;17.63;10.15;;;;;;;7.20;93.32;100654.03;5075062;28;20028;-77
2021/12/29 08:59:00;;;;;;;19.15;9.77;;;;;;;7.22;93.26;100651.44;5098701;28;20470;-77
2021/12/29 09:01:27;;;;;;;14.30;9.90;;;;;;;7.23;93.53;100648.81;5082861;28;20023;-77
2021/12/29 09:03:53;;;;;;;11.48;9.52;;;;;;;7.24;93.03;100649.69;5080546;27;20457;-77
2021/12/29 09:06:19;;;;;;;22.70;10.85;;;;;;;7.26;93.06;100648.81;5070332;28;20023;-77
2021/12/29 09:08:47;;;;;;;17.23;10.38;;;;;;;7.27;92.53;100661.00;5094780;28;20062;-77
2021/12/29 09:11:14;;;;;;;21.50;9.20;;;;;;;7.28;92.72;100654.91;5100936;28;20039;-77
2021/12/29 09:13:39;;;;;;;15.60;10.10;;;;;;;7.31;92.53;100655.75;5096526;28;20031;-77
2021/12/29 09:16:09;;;;;;;16.13;10.32;;;;;;;7.32;92.32;100657.50;5103303;27;20447;-77
2021/12/29 09:18:36;;;;;;;21.50;11.48;;;;;;;7.34;92.83;100655.75;5079478;27;20055;-77
2021/12/29 09:21:07;;;;;;;19.15;12.75;;;;;;;7.36;92.19;100649.69;5095967;27;20031;-78
2021/12/29 09:23:35;;;;;;;20.45;12.43;;;;;;;7.38;92.59;100647.06;5101963;27;20042;-76
2021/12/29 09:26:01;;;;;;;19.27;11.73;;;;;;;7.41;92.34;100652.28;5065245;27;20027;-77
2021/12/29 09:28:26;;;;;;;18.13;11.05;;;;;;;7.43;92.83;100645.34;5083942;28;20104;-77
2021/12/29 09:30:53;;;;;;;21.42;12.82;;;;;;;7.47;92.34;100636.63;5094632;28;20019;-77
2021/12/29 09:33:20;;;;;;;14.25;11.18;;;;;;;7.46;92.01;100629.69;5099236;27;20027;-77
2021/12/29 09:35:51;;;;;;;18.55;11.82;;;;;;;7.48;91.42;100633.13;5104997;28;20375;-76
2021/12/29 09:38:18;;;;;;;18.48;12.52;;;;;;;7.49;91.31;100634.03;5103136;28;20605;-77
2021/12/29 09:40:44;;;;;;;25.40;14.48;;;;;;;7.49;91.05;100629.66;5103574;27;20471;-76
2021/12/29 09:43:12;;;;;;;14.98;11.40;;;;;;;7.51;91.32;100638.34;5066387;28;20196;-76
2021/12/29 09:45:42;;;;;;;17.13;12.70;;;;;;;7.53;90.82;100643.53;5099882;28;20028;-76
2021/12/29 09:48:08;;;;;;;16.75;12.27;;;;;;;7.57;90.47;100640.94;5103388;27;20027;-76
2021/12/29 09:50:34;;;;;;;12.57;11.20;;;;;;;7.59;90.07;100640.94;5113689;27;20053;-76
2021/12/29 09:53:01;;;;;;;13.02;11.70;;;;;;;7.63;90.53;100633.09;5105751;28;20020;-76
2021/12/29 09:55:27;;;;;;;14.88;11.55;;;;;;;7.68;89.92;100638.28;5093653;27;20054;-77
2021/12/29 09:57:56;;;;;;;18.48;12.27;;;;;;;7.68;89.75;100624.41;5076290;28;20437;-77
2021/12/29 10:00:25;;;;;;;15.90;12.33;;;;;;;7.71;89.34;100624.38;5109693;27;20027;-77
2021/12/29 10:02:51;;;;;;;17.30;11.43;;;;;;;7.77;89.42;100635.69;5093839;28;20023;-78
2021/12/29 10:05:17;;;;;;;14.35;11.50;;;;;;;7.88;89.24;100632.16;5093643;28;20154;-77
2021/12/29 10:07:43;;;;;;;13.18;10.80;;;;;;;8.02;89.05;100629.50;5101875;28;20122;-78
2021/12/29 10:10:19;;;;;;;16.90;10.82;;;;;;;8.25;88.59;100624.16;5084744;27;20034;-78
2021/12/29 10:12:46;;;;;;;12.93;11.10;;;;;;;8.83;87.71;100625.50;5099381;27;20034;-78
2021/12/29 10:15:11;;;;;;;24.88;11.52;;;;;;;9.87;85.86;100636.69;5115362;27;20031;-78
2021/12/29 10:17:37;;;;;;;16.05;11.82;;;;;;;10.65;81.51;100641.75;5104065;27;20081;-79
2021/12/29 10:20:06;;;;;;;17.90;10.07;;;;;;;10.95;80.03;100639.56;5105083;27;20077;-78
2021/12/29 10:22:32;;;;;;;11.75;8.82;;;;;;;10.77;78.40;100642.47;5099216;28;20024;-78
2021/12/29 10:25:08;;;;;;;15.50;9.40;;;;;;;10.62;80.81;100635.72;5077067;28;20042;-79
2021/12/29 10:27:34;;;;;;;12.70;10.05;;;;;;;10.47;78.71;100624.56;5101245;27;20023;-79
2021/12/29 10:30:02;;;;;;;11.98;7.43;;;;;;;10.44;78.89;100627.22;5096460;27;20547;-78
2021/12/29 10:32:27;;;;;;;11.27;8.35;;;;;;;10.52;79.10;100621.88;5122475;27;20037;-78
2021/12/29 10:34:54;;;;;;;10.70;8.18;;;;;;;10.74;77.61;100599.69;5068241;28;20462;-78
2021/12/29 10:37:23;;;;;;;10.57;7.43;;;;;;;10.91;76.70;100599.41;5085816;28;20031;-79
2021/12/29 10:39:51;;;;;;;12.73;6.88;;;;;;;10.50;76.39;100600.06;5068084;28;20036;-78
2021/12/29 10:42:23;;;;;;;8.57;6.03;;;;;;;9.92;78.66;100597.34;5096499;28;20037;-78
2021/12/29 10:44:59;;;;;;;9.48;7.45;;;;;;;9.50;79.95;100599.63;5108622;28;20035;-78
2021/12/29 10:47:27;;;;;;;14.63;7.63;;;;;;;9.21;81.37;100599.91;5108542;27;20027;-78
2021/12/29 10:50:08;;;;;;;13.35;8.13;;;;;;;9.15;82.91;100601.72;5101262;28;20093;-79
2021/12/29 10:52:33;;;;;;;;;;;;;;;9.18;83.12;100608.69;5115625;28;20080;-78
2021/12/29 10:55:00;;;;;;;10.57;7.22;;;;;;;9.00;83.02;100605.31;5098273;28;20698;-78
2021/12/29 10:57:25;;;;;;;14.00;8.07;;;;;;;8.91;83.28;100591.50;5101827;27;20511;-78
2021/12/29 10:59:57;;;;;;;13.52;6.95;;;;;;;8.81;83.69;100590.72;5093066;28;20490;-78
2021/12/29 11:02:26;;;;;;;15.60;7.20;;;;;;;8.71;84.06;100596.91;5072759;28;20031;-77
2021/12/29 11:05:04;;;;;;;14.05;8.00;;;;;;;8.61;84.24;100604.78;5101405;28;20027;-77
2021/12/29 11:07:32;;;;;;;15.50;8.05;;;;;;;8.53;84.68;100614.41;5098468;28;20895;-78
2021/12/29 11:10:14;;;;;;;12.27;7.22;;;;;;;8.47;85.13;100622.28;5092455;28;20027;-78
2021/12/29 11:12:43;;;;;;;11.55;7.85;;;;;;;8.38;85.53;100624.94;5120095;27;20039;-77
2021/12/29 11:15:24;;;;;;;12.65;6.97;;;;;;;8.37;86.36;100637.13;5103647;28;20034;-77
2021/12/29 11:17:51;;;;;;;9.40;6.97;;;;;;;8.36;86.23;100632.78;5106054;28;20027;-78
2021/12/29 11:20:19;;;;;;;14.00;7.82;;;;;;;8.37;86.22;100620.59;5101272;28;20034;-79
2021/12/29 11:22:45;;;;;;;13.35;8.85;;;;;;;8.35;86.57;100635.38;5100301;28;20031;-79
2021/12/29 11:25:11;;;;;;;15.65;7.50;;;;;;;8.32;86.32;100618.88;5102536;28;20392;-78
2021/12/29 11:27:38;;;;;;;10.25;6.65;;;;;;;8.27;86.07;100604.13;5078678;28;20031;-77